Los Angeles, California
Current Conditions -  °F | °C
As of 2:47 PM on Wednesday 17 Dec 2014 (Local Time) from KCQT Reporting Station
Clear Clear  
Wind Chill: 16°   Ceiling: Unl
Heat Index: 16°   Visibility: 10mi
Dew Point:   Wind: 6mph
Humidity: 56%   Direction: NA
Pressure: 30.05"   Gusts: NA
Location:  34.05°N, 118.24°W
Report Text: KCQT 172247Z AUTO VRB05KT 10SM CLR 16/07 A3005 RMK AO2 SLP174 T01610072
Loading
Personal Weather Stations






























Interactive Weather Map New forecast layout! Learn more

10-Day Weather Forecast

Advertisements
Track Severe Weather on mobile